NWS Home NWS Lubbock West Texas Mesonet Central Sector Latest Conditions as of 0625 AM, Wed Dec 02, 2020

Latest   N   C   S   Daily Sum   3hrΔ   24hrΔ   Soil Data 
Site Map   24hr Precip   72hr Precip   Google Plot


Station Time of Last Temp Dew Pt. RH Wind Direction Wind Speed Wind Gust Max Wind Max Temp Min Temp Max RH Min RH Altimeter 1HR Rain Today's Rain Solar Rad Wind Chill
Abernathy 5ENE  06:20 AM 30 22 72% N1519 33 mph 349° @ 0106 AM 37 30 73 48 30.11" 0 0.00 0 19
Aiken 3WSW  06:20 AM 34 22 61% N2024 28 mph 358° @ 0619 AM 35 31 64 56 30.12" 0 0.00 0 23
Amherst 1NE  06:20 AM 33 26 73% N2430 33 mph 338° @ 0245 AM 38 32 75 46 30.14" 0 0.00 0 20
Anton 6SSW  06:20 AM 33 25 72% NW2024 30 mph 331° @ 0400 AM 39 33 72 42 30.14" 0 0.00 0 21
Aspermont 3NE  06:20 AM 39 26 59% NW1520 22 mph 322° @ 0610 AM 44 36 73 54 30.05" 0 0.00 0  
Bootleg 11WNW  06:20 AM 28 27 97% N2224 37 mph 345° @ 0212 AM 33 28 97 67 30.19" 0 0.00 0 14
Brownfield 2S  06:20 AM 35 24 66% NW2125 32 mph 358° @ 1250 AM 41 35 66 36 30.13" 0 0.00 0 24
Caprock Canyons State Park  06:20 AM 37 23 57% N1519 44 mph 347° @ 0341 AM 42 37 57 41 30.12" 0 0.00 0  
Childress 2NNE  06:20 AM 39 25 57% N2736 36 mph 343° @ 0620 AM 39 36 70 57 30.04" 0 0.00 0  
Clarendon 2WSW  06:20 AM 36 24 63% N2636 41 mph 2° @ 0520 AM 38 36 63 54 30.10" 0 0.00 0  
Claude 12SW  06:20 AM 33 24 70% N3339 41 mph 345° @ 0457 AM 34 33 70 55 30.10" 0 0.00 0 18
Comanche Springs  06:20 AM 38 28 66% NW1624 30 mph 320° @ 0614 AM 39 36 81 66 30.03" 0 0.00 0  
Crowell 1E  06:20 AM 37 29 73% NW1521 24 mph 334° @ 0524 AM 44 35 81 57 30.02" 0 0.00 0  
Denver City 7WNW  06:20 AM 33 24 69% N1724 30 mph 352° @ 0335 AM 40 33 70 37 30.15" 0 0.00 0 22
Dimmitt 2NE  06:20 AM 32 25 78% N2329 38 mph 343° @ 0450 AM 35 31 78 51 30.14" 0 0.00 0 19
Dora NM 2SW  06:20 AM 30 23 77% N1825 34 mph 351° @ 0130 AM 36 28 77 45 30.17" 0 0.00 0 18
Earth 9WSW  06:20 AM 33 26 75% N2026 33 mph 340° @ 0335 AM 37 33 75 46 30.16" 0 0.00 0 21
Estelline 3SSE  06:20 AM 40 24 53% N2126 36 mph 353° @ 0610 AM 41 39 61 52 30.09" 0 0.00 0  
Floydada 2NNE  06:20 AM 34 20 55% N1825 30 mph 349° @ 0505 AM 39 33 59 48 30.08" 0 0.00 0 23
Fluvanna 3WNW  06:20 AM 37 21 52% N2836 36 mph 339° @ 0620 AM 42 37 53 49 30.06" 0 0.00 0  
Friona 2NE  06:20 AM 32 25 77% N2737 39 mph 353° @ 0605 AM 33 31 78 56 30.16" 0 0.00 0 18
Gail 2ESE  06:20 AM 38 21 50% N1723 28 mph 336° @ 0507 AM 44 38 52 46 30.09" 0 0.00 0  
Goodlett 3W  06:20 AM 37 28 69% N2025 28 mph 338° @ 0610 AM 38 35 77 68 30.03" 0 0.00 0  
Graham 5SSW  06:20 AM 36 20 53% NW1624 31 mph 331° @ 0529 AM 42 36 53 44 30.11" 0 0.00 0  
Guthrie 10WSW  06:20 AM 39 22 50% NW2231 33 mph 335° @ 0555 AM 43 39 53 48 30.03" 0 0.00 0  
Hackberry 2SSE  06:20 AM 38 26 61% NW2023 30 mph 322° @ 0542 AM 39 37 74 61 30.04" 0 0.00 0  
Happy 1E  06:20 AM 34 24 67% N3239 41 mph 8° @ 0612 AM 35 34 67 51 30.13" 0 0.00 0 20
Hart 3N  06:20 AM 33 26 76% N2534 35 mph 339° @ 0520 AM 36 32 80 51 30.12" 0 0.00 0 20
Haskell 1NW  06:20 AM 37 29 73% NW1420 20 mph 317° @ 0620 AM 45 36 76 61 30.01" 0 0.00 0  
Hefner 1SW  06:20 AM 36 29 73% NW1619 22 mph 301° @ 0611 AM 44 36 79 60 30.01" 0 0.00 0  
Hereford 2NW  06:20 AM 32 26 78% N2635 36 mph 349° @ 0450 AM 34 31 80 55 30.15" 0 0.00 0 19
Hobbs NM 5NW  06:20 AM 33 22 64% N1114 27 mph 6° @ 1233 AM 40 33 64 30 30.19" 0 0.00 0 24
Jayton 1SSE  06:20 AM 40 24 52% N1827 29 mph 335° @ 0605 AM 44 39 64 50 30.05" 0 0.00 0  
Knox City 3NW  06:20 AM 39 28 64% NW1013 25 mph 250° @ 1206 AM 47 37 71 54 30.03" 0 0.00 0  
Lake Alan Henry 1NW  06:20 AM 38 22 52% N1116 23 mph 337° @ 0151 AM 43 38 55 48 30.08" 0 0.00 0  
Lamesa 2SE  06:20 AM 36 25 63% NW1930 31 mph 337° @ 0615 AM 43 36 63 41 30.12" 0 0.00 0  
Lesley 2S  06:20 AM 39 24 55% N2429 39 mph 354° @ 0441 AM 42 39 55 47 30.11" 0 0.00 0  
Levelland 4S  06:20 AM 33 25 71% N2225 35 mph 338° @ 0447 AM 40 33 71 38 30.14" 0 0.00 0 21
Lubbock 3WNW TTU  06:20 AM 34 25 71% N1217 26 mph 340° @ 0125 AM 40 34 71 45 30.13" 0 0.00 0 25
McAdoo 3NNW  06:20 AM 35 22 57% N2539 39 mph 2° @ 0620 AM 40 35 58 48 30.07" 0 0.00 0 23
Memphis 1NE  06:20 AM 38 25 59% N3240 46 mph 356° @ 0530 AM 41 38 59 53 30.08" 0 0.00 0  
Morton 1ENE  06:20 AM 32 24 73% N1623 30 mph 346° @ 0135 AM 39 32 73 38 30.16" 0 0.00 0 21
Muleshoe 2SSW  06:20 AM 33 27 77% N1624 31 mph 350° @ 0245 AM 38 33 78 46 30.16" 0 0.00 0 22
New Home  06:20 AM 34 24 68% N1415 29 mph 344° @ 0240 AM 41 34 68 42 30.15" 0 0.00 0 25
Northfield 1S  06:20 AM 39 22 51% N2433 34 mph 346° @ 0615 AM 41 38 57 49 30.09" 0 0.00 0  
O'Donnell 1N  06:20 AM 34 23 64% NW1519 27 mph 340° @ 1255 AM 42 34 64 43 30.12" 0 0.00 0 24
Odell 4ENE  06:20 AM 32 28 83% NW1112 16 mph 116° @ 1224 AM 40 29 89 60 30.01" 0 0.00 0 23
Olton 6S  06:20 AM 33 25 75% N2128 33 mph 346° @ 1225 AM 37 32 75 48 30.12" 0 0.00 0 21
Paducah 10SW  06:20 AM 38 25 59% N2432 33 mph 340° @ 0610 AM 40 38 64 57 30.05" 0 0.00 0  
Palo Duro 4E (JA Ranch)  06:20 AM 37 24 59% N2330 43 mph 360° @ 0506 AM 41 37 59 48 30.12" 0 0.00 0  
Palo Duro Canyon SP Floor  06:20 AM 36 25 62% N1521 36 mph 332° @ 0554 AM 39 36 62 45 30.15" 0 0.00 0  
Palo Duro Canyon State Park Rim  06:20 AM 34 23 64% N2430 39 mph 351° @ 0206 AM 38 34 64 44 30.14" 0 0.00 0 22
Plains 3N  06:20 AM 32 25 73% N1620 33 mph 348° @ 0340 AM 39 32 73 40 30.16" 0 0.00 0 21
Plainview 1S  06:20 AM 34 22 60% N1723 32 mph 342° @ 1205 AM 38 33 60 48 30.11" 0 0.00 0 24
Post 1NE  06:20 AM 37 21 52% NW1724 32 mph 331° @ 0156 AM 43 37 52 45 30.10" 0 0.00 0  
Ralls 1SE  06:20 AM 35 19 52% N1722 30 mph 333° @ 0325 AM 39 33 54 46 30.09" 0 0.00 0 25
Reese Center  06:20 AM 33 25 72% N1721 32 mph 348° @ 1219 AM 39 33 72 43 30.13" 0 0.00 0 22
Roaring Springs 3N  06:20 AM 37 25 62% NW2736 39 mph 322° @ 0610 AM 41 37 62 53 30.06" 0 0.00 0  
Rotan 5W  06:20 AM 38 24 56% NW1316 22 mph 225° @ 1201 AM 47 38 64 49 30.08" 0 0.00 0  
Seagraves 1SW  06:20 AM 34 25 70% N1925 28 mph 355° @ 1205 AM 41 34 71 36 30.14" 0 0.00 0 23
Seminole 2NNE  06:20 AM 35 25 67% N1418 29 mph 346° @ 0135 AM 42 35 67 34 30.15" 0 0.00 0 26
Seymour 3NW  06:20 AM 34 29 80% NW1417 22 mph 158° @ 1220 AM 46 33 88 46 29.99" 0 0.00 0 24
Silverton 7ESE  06:20 AM 34 23 63% N2533 41 mph 357° @ 0510 AM 39 34 63 51 30.10" 0 0.00 0 21
Slaton 2NE  06:20 AM 35 21 54% N1824 35 mph 333° @ 0229 AM 41 34 56 47 30.11" 0 0.00 0 24
Smyer  06:20 AM 33 25 70% NW1922 29 mph 342° @ 0325 AM 39 33 70 41 30.14" 0 0.00 0 22
Snyder 3E  06:20 AM 38 22 54% NW1720 28 mph 328° @ 0400 AM 45 37 67 48 30.07" 0 0.00 0  
Snyder 3SSW  06:20 AM 38 22 52% NW1317 25 mph 336° @ 0541 AM 46 38 59 45 30.08" 0 0.00 0  
South Plains 3ENE  06:20 AM 35 22 60% N2226 34 mph 1° @ 0512 AM 39 34 60 49 30.10" 0 0.00 0 24
Spur 1W  06:20 AM 39 22 51% N2230 34 mph 356° @ 0510 AM 44 39 51 44 30.05" 0 0.00 0  
Stamford 5ESE  06:20 AM 36 29 74% NW910 17 mph 298° @ 0257 AM 44 36 76 55 30.04" 0 0.00 0  
Sundown 8WSW  06:20 AM 32 24 71% NW1621 31 mph 348° @ 0350 AM 39 32 71 36 30.16" 0 0.00 0 21
Tahoka 3NNE  06:20 AM 35 21 57% N1721 31 mph 338° @ 0215 AM 41 34 57 44 30.12" 0 0.00 0 25
Tatum NM 2SW  06:20 AM 31 22 70% N1822 35 mph 349° @ 0205 AM 38 31 70 36 30.17" 0 0.00 0 19
Throckmorton 1SW  06:20 AM 37 30 77% W1114 17 mph 265° @ 0607 AM 45 36 81 46 30.01" 0 0.00 0  
Truscott 2SE  06:20 AM 38 29 69% NW2024 30 mph 323° @ 0537 AM 44 37 75 64 30.01" 0 0.00 0  
Tulia 2ENE  06:20 AM 35 24 64% N2534 34 mph 349° @ 0620 AM 35 32 64 55 30.13" 0 0.00 0 23
Turkey 2WSW  06:20 AM 38 23 55% NW2329 40 mph 330° @ 0525 AM 40 37 58 49 30.10" 0 0.00 0  
Umbarger 3NNE  06:20 AM 33 24 69% N2937 41 mph 356° @ 0558 AM 34 32 74 51 30.15" 0 0.00 0 19
Vigo Park  06:20 AM 34 24 66% N2126 37 mph 353° @ 0425 AM 36 34 66 54 30.12" 0 0.00 0 22
Weinert 2NNE  06:20 AM 37 28 70% NW1418 18 mph 315° @ 0620 AM 44 36 73 60 30.02" 0 0.00 0  
Welch  06:20 AM 35 25 67% N1416 27 mph 342° @ 0114 AM 40 35 67 41 30.14" 0 0.00 0 26
White River Lake 6NW  06:20 AM 37 21 53% N2230 39 mph 337° @ 0552 AM 42 36 54 46 30.06" 0 0.00 0  
Wolfforth 6SSW  06:20 AM 33 24 70% N1620 32 mph 343° @ 1239 AM 39 33 70 42 30.14" 0 0.00 0 23

West Texas Mesonet Home   Site Map/Menu  NWS Lubbock Soil Data  Daily Summary Page  24hr Precip  72hr Precip  Google Plot